createdAt,value
2023-03-19T00:00:28.119Z,3.90
2023-03-19T00:02:54.932Z,3.89
2023-03-19T00:05:21.669Z,3.84
2023-03-19T00:07:48.328Z,3.85
2023-03-19T00:10:15.080Z,3.82
2023-03-19T00:12:41.971Z,3.87
2023-03-19T00:15:14.024Z,3.83
2023-03-19T00:17:42.026Z,3.79
2023-03-19T00:20:11.021Z,3.66
2023-03-19T00:22:37.682Z,3.71
2023-03-19T00:25:04.644Z,3.68
2023-03-19T00:27:31.467Z,3.64
2023-03-19T00:29:58.228Z,3.61
2023-03-19T00:32:25.505Z,3.55
2023-03-19T00:34:52.179Z,3.45
2023-03-19T00:37:18.938Z,3.39
2023-03-19T00:39:45.559Z,3.33
2023-03-19T00:42:12.404Z,3.36
2023-03-19T00:44:39.036Z,3.40
2023-03-19T00:47:07.333Z,3.39
2023-03-19T00:49:33.974Z,3.37
2023-03-19T00:52:01.204Z,3.42
2023-03-19T00:54:32.452Z,3.38
2023-03-19T00:56:59.165Z,3.29
2023-03-19T00:59:26.368Z,3.35
2023-03-19T01:01:53.022Z,3.35
2023-03-19T01:04:19.725Z,3.29
2023-03-19T01:06:46.366Z,3.31
2023-03-19T01:09:13.004Z,3.30
2023-03-19T01:11:39.619Z,3.31
2023-03-19T01:14:06.401Z,3.30
2023-03-19T01:16:34.699Z,3.34
2023-03-19T01:19:02.126Z,3.35
2023-03-19T01:21:31.050Z,3.34
2023-03-19T01:23:58.647Z,3.36
2023-03-19T01:26:25.515Z,3.29
2023-03-19T01:28:52.537Z,3.31
2023-03-19T01:31:19.543Z,3.27
2023-03-19T01:33:46.547Z,3.25
2023-03-19T01:36:13.764Z,3.22
2023-03-19T01:38:40.510Z,3.21
2023-03-19T01:41:07.732Z,3.20
2023-03-19T01:43:34.387Z,3.19
2023-03-19T01:46:07.772Z,3.16
2023-03-19T01:48:51.677Z,3.21
2023-03-19T01:51:23.444Z,3.12
2023-03-19T01:53:53.902Z,3.17
2023-03-19T01:56:24.158Z,3.15
2023-03-19T01:58:56.640Z,3.08
2023-03-19T02:01:23.802Z,3.04
2023-03-19T02:03:53.014Z,3.00
2023-03-19T02:06:22.013Z,3.04
2023-03-19T02:08:53.648Z,3.05
2023-03-19T02:11:20.961Z,3.08
2023-03-19T02:13:48.256Z,3.10
2023-03-19T02:16:16.030Z,3.06
2023-03-19T02:18:43.122Z,3.04
2023-03-19T02:21:15.010Z,3.00
2023-03-19T02:24:12.283Z,2.99
2023-03-19T02:26:41.370Z,3.02
2023-03-19T02:29:08.012Z,3.02
2023-03-19T02:31:34.699Z,3.00
2023-03-19T02:34:07.449Z,2.91
2023-03-19T02:36:39.130Z,2.90
2023-03-19T02:39:12.091Z,2.89
2023-03-19T02:41:41.542Z,2.86
2023-03-19T02:44:11.792Z,2.90
2023-03-19T02:46:38.485Z,2.94
2023-03-19T02:49:05.397Z,2.88
2023-03-19T02:51:32.081Z,2.82
2023-03-19T02:54:00.919Z,2.79
2023-03-19T02:56:27.698Z,2.78
2023-03-19T02:58:54.397Z,2.74
2023-03-19T03:01:21.168Z,2.75
2023-03-19T03:03:47.831Z,2.77
2023-03-19T03:06:14.492Z,2.77
2023-03-19T03:08:41.306Z,2.74
2023-03-19T03:11:07.921Z,2.72
2023-03-19T03:13:34.912Z,2.69
2023-03-19T03:16:01.987Z,2.68
2023-03-19T03:18:28.629Z,2.61
2023-03-19T03:20:55.377Z,2.56
2023-03-19T03:23:22.131Z,2.58
2023-03-19T03:25:51.339Z,2.55
2023-03-19T03:28:19.143Z,2.50
2023-03-19T03:30:46.567Z,2.56
2023-03-19T03:33:13.180Z,2.50
2023-03-19T03:35:40.001Z,2.57
2023-03-19T03:38:06.778Z,2.60
2023-03-19T03:40:34.530Z,2.59
2023-03-19T03:43:01.417Z,2.58
2023-03-19T03:45:28.074Z,2.54
2023-03-19T03:47:54.750Z,2.54
2023-03-19T03:50:21.727Z,2.50
2023-03-19T03:52:48.336Z,2.49
2023-03-19T03:55:15.298Z,2.50
2023-03-19T03:57:41.940Z,2.51
2023-03-19T04:00:09.580Z,2.50
2023-03-19T04:02:36.253Z,2.49
2023-03-19T04:05:02.988Z,2.45
2023-03-19T04:07:29.619Z,2.42
2023-03-19T04:09:58.366Z,2.40
2023-03-19T04:12:25.432Z,2.39
2023-03-19T04:14:52.105Z,2.33
2023-03-19T04:17:18.947Z,2.35
2023-03-19T04:19:45.782Z,2.31
2023-03-19T04:22:12.841Z,2.28
2023-03-19T04:24:39.479Z,2.31
2023-03-19T04:27:07.327Z,2.28
2023-03-19T04:29:34.217Z,2.27
2023-03-19T04:32:00.877Z,2.27
2023-03-19T04:34:27.534Z,2.29
2023-03-19T04:36:54.167Z,2.23
2023-03-19T04:39:20.793Z,2.18
2023-03-19T04:41:47.596Z,2.11
2023-03-19T04:44:14.215Z,2.03
2023-03-19T04:46:40.860Z,1.95
2023-03-19T04:49:08.111Z,1.90
2023-03-19T04:51:34.761Z,1.94
2023-03-19T04:54:01.459Z,1.95
2023-03-19T04:56:31.378Z,1.92
2023-03-19T04:58:58.186Z,1.90
2023-03-19T05:01:25.101Z,1.83
2023-03-19T05:03:52.154Z,1.76
2023-03-19T05:06:20.016Z,1.75
2023-03-19T05:08:47.157Z,1.79
2023-03-19T05:11:13.810Z,1.84
2023-03-19T05:13:40.454Z,1.92
2023-03-19T05:16:07.356Z,1.86
2023-03-19T05:18:34.471Z,1.85
2023-03-19T05:21:01.124Z,1.80
2023-03-19T05:23:27.739Z,1.82
2023-03-19T05:25:54.711Z,1.85
2023-03-19T05:28:21.451Z,1.90
2023-03-19T05:30:48.150Z,1.92
2023-03-19T05:33:14.878Z,1.90
2023-03-19T05:35:41.637Z,1.86
2023-03-19T05:38:08.277Z,1.83
2023-03-19T05:40:36.104Z,1.81
2023-03-19T05:43:03.329Z,1.83
2023-03-19T05:45:30.816Z,1.91
2023-03-19T05:47:57.451Z,1.90
2023-03-19T05:50:24.098Z,1.92
2023-03-19T05:52:50.773Z,1.94
2023-03-19T05:55:17.621Z,2.05
2023-03-19T05:57:44.380Z,2.06
2023-03-19T06:00:12.214Z,2.11
2023-03-19T06:02:39.352Z,2.12
2023-03-19T06:05:06.565Z,2.19
2023-03-19T06:07:33.215Z,2.23
2023-03-19T06:10:04.390Z,2.28
2023-03-19T06:12:31.211Z,2.37
2023-03-19T06:14:57.791Z,2.40
2023-03-19T06:17:24.509Z,2.40
2023-03-19T06:19:51.113Z,2.42
2023-03-19T06:22:17.733Z,2.45
2023-03-19T06:24:44.354Z,2.54
2023-03-19T06:27:11.148Z,2.58
2023-03-19T06:29:37.853Z,2.64
2023-03-19T06:32:04.799Z,2.71
2023-03-19T06:34:31.429Z,2.76
2023-03-19T06:36:58.083Z,2.84
2023-03-19T06:39:24.815Z,2.90
2023-03-19T06:41:51.569Z,2.95
2023-03-19T06:44:18.373Z,3.00
2023-03-19T06:46:45.114Z,3.08
2023-03-19T06:49:11.774Z,3.18
2023-03-19T06:51:38.435Z,3.26
2023-03-19T06:54:05.055Z,3.37
2023-03-19T06:56:31.684Z,3.50
2023-03-19T06:58:58.277Z,3.61
2023-03-19T07:01:25.201Z,3.78
2023-03-19T07:03:51.917Z,3.85
2023-03-19T07:06:18.559Z,4.00
2023-03-19T07:08:46.558Z,4.12
2023-03-19T07:11:14.093Z,4.27
2023-03-19T07:13:41.111Z,4.40
2023-03-19T07:16:08.839Z,4.48
2023-03-19T07:18:35.877Z,4.56
2023-03-19T07:21:02.564Z,4.62
2023-03-19T07:23:29.209Z,4.71
2023-03-19T07:25:55.952Z,4.81
2023-03-19T07:28:23.129Z,4.92
2023-03-19T07:30:53.026Z,5.01
2023-03-19T07:33:20.427Z,5.08
2023-03-19T07:35:47.112Z,5.16
2023-03-19T07:38:14.738Z,5.22
2023-03-19T07:40:45.541Z,5.40
2023-03-19T07:43:18.063Z,5.57
2023-03-19T07:45:44.748Z,5.59
2023-03-19T07:48:12.550Z,5.68
2023-03-19T07:50:39.298Z,5.63
2023-03-19T07:53:06.441Z,5.57
2023-03-19T07:55:33.138Z,5.62
2023-03-19T07:58:00.012Z,5.69
2023-03-19T08:00:27.424Z,5.73
2023-03-19T08:02:54.070Z,5.83
2023-03-19T08:05:20.717Z,5.92
2023-03-19T08:07:49.502Z,6.00
2023-03-19T08:10:16.335Z,6.06
2023-03-19T08:12:42.987Z,6.14
2023-03-19T08:15:11.672Z,6.17
2023-03-19T08:17:38.976Z,6.21
2023-03-19T08:20:09.561Z,6.31
2023-03-19T08:22:37.670Z,6.49
2023-03-19T08:25:06.886Z,6.57
2023-03-19T08:27:35.752Z,6.56
2023-03-19T08:30:04.530Z,6.62
2023-03-19T08:32:31.210Z,6.74
2023-03-19T08:34:58.100Z,6.78
2023-03-19T08:37:24.810Z,6.84
2023-03-19T08:39:52.295Z,6.91
2023-03-19T08:42:20.141Z,7.03
2023-03-19T08:44:46.897Z,7.13
2023-03-19T08:47:13.518Z,7.16
2023-03-19T08:49:40.844Z,7.25
2023-03-19T08:52:08.407Z,7.47
2023-03-19T08:54:36.242Z,7.61
2023-03-19T08:57:07.329Z,7.79
2023-03-19T08:59:34.364Z,7.85
2023-03-19T09:02:01.731Z,7.96
2023-03-19T09:04:29.124Z,8.19
2023-03-19T09:06:56.123Z,8.22
2023-03-19T09:09:24.763Z,8.43
2023-03-19T09:11:51.495Z,8.45
2023-03-19T09:14:20.006Z,8.42
2023-03-19T09:16:46.837Z,8.56
2023-03-19T09:19:13.604Z,8.64
2023-03-19T09:21:40.558Z,8.64
2023-03-19T09:24:07.711Z,8.68
2023-03-19T09:26:34.505Z,8.80
2023-03-19T09:29:02.227Z,8.83
2023-03-19T09:31:29.843Z,8.90
2023-03-19T09:33:57.130Z,9.04
2023-03-19T09:36:24.059Z,9.02
2023-03-19T09:38:50.714Z,9.02
2023-03-19T09:41:17.410Z,9.11
2023-03-19T09:43:59.342Z,9.07
2023-03-19T09:46:35.128Z,9.09
2023-03-19T09:49:15.598Z,9.05
2023-03-19T09:51:58.376Z,9.07
2023-03-19T09:54:33.664Z,9.18
2023-03-19T09:57:01.255Z,9.24
2023-03-19T09:59:29.457Z,9.32
2023-03-19T10:02:24.158Z,9.43
2023-03-19T10:05:07.821Z,9.70
2023-03-19T10:07:36.722Z,9.64
2023-03-19T10:10:38.333Z,9.67
2023-03-19T10:13:20.342Z,9.88
2023-03-19T10:15:47.584Z,9.95
2023-03-19T10:18:21.049Z,10.06
2023-03-19T10:21:06.319Z,10.20
2023-03-19T10:23:52.602Z,10.30
2023-03-19T10:26:21.721Z,10.49
2023-03-19T10:29:02.591Z,10.59
2023-03-19T10:31:43.094Z,10.71
2023-03-19T10:34:29.338Z,10.88
2023-03-19T10:37:16.560Z,10.93
2023-03-19T10:39:45.961Z,11.00
2023-03-19T10:42:39.420Z,11.25
2023-03-19T10:45:26.686Z,11.20
2023-03-19T10:47:56.161Z,11.20
2023-03-19T10:50:30.298Z,11.31
2023-03-19T10:53:18.036Z,11.27
2023-03-19T10:55:50.911Z,11.33
2023-03-19T10:58:19.868Z,11.46
2023-03-19T11:00:48.742Z,11.53
2023-03-19T11:03:33.320Z,11.48
2023-03-19T11:06:31.266Z,11.59
2023-03-19T11:09:03.450Z,11.74
2023-03-19T11:11:36.820Z,11.75
2023-03-19T11:14:09.523Z,11.87
2023-03-19T11:16:55.020Z,11.78
2023-03-19T11:19:26.469Z,11.86
2023-03-19T11:22:01.431Z,11.89
2023-03-19T11:24:31.322Z,11.93
2023-03-19T11:26:58.496Z,11.94
2023-03-19T11:29:28.232Z,12.02
2023-03-19T11:32:21.313Z,12.02
2023-03-19T11:35:10.900Z,12.10
2023-03-19T11:37:49.635Z,12.08
2023-03-19T11:40:31.926Z,12.11
2023-03-19T11:43:00.612Z,12.24
2023-03-19T11:45:47.451Z,12.43
2023-03-19T11:48:30.378Z,12.41
2023-03-19T11:51:16.186Z,12.55
2023-03-19T11:53:58.102Z,12.70
2023-03-19T11:56:43.124Z,12.86
2023-03-19T11:59:31.232Z,13.05
2023-03-19T12:02:28.470Z,13.10
2023-03-19T12:04:55.022Z,13.15
2023-03-19T12:07:22.638Z,13.18
2023-03-19T12:10:10.145Z,13.26
2023-03-19T12:12:49.877Z,13.43
2023-03-19T12:15:22.930Z,13.50
2023-03-19T12:18:07.786Z,13.52
2023-03-19T12:20:48.767Z,13.54
2023-03-19T12:23:24.409Z,13.61
2023-03-19T12:26:00.348Z,13.79
2023-03-19T12:28:30.741Z,13.84
2023-03-19T12:31:09.646Z,13.98
2023-03-19T12:33:56.681Z,13.99
2023-03-19T12:36:29.455Z,14.04
2023-03-19T12:39:05.426Z,14.17
2023-03-19T12:41:35.636Z,14.32
2023-03-19T12:44:20.134Z,14.46
2023-03-19T12:47:05.301Z,14.52
2023-03-19T12:49:52.418Z,14.56
2023-03-19T12:52:19.037Z,14.75
2023-03-19T12:54:53.323Z,14.82
2023-03-19T12:57:35.589Z,14.86
2023-03-19T13:00:10.116Z,14.94
2023-03-19T13:02:52.195Z,14.93
2023-03-19T13:05:39.860Z,14.96
2023-03-19T13:08:23.602Z,14.95
2023-03-19T13:10:50.295Z,15.05
2023-03-19T13:13:27.108Z,15.08
2023-03-19T13:15:59.258Z,15.18
2023-03-19T13:18:27.917Z,15.29
2023-03-19T13:21:29.839Z,15.51
2023-03-19T13:24:09.064Z,15.52
2023-03-19T13:26:36.529Z,15.56
2023-03-19T13:29:17.076Z,15.55
2023-03-19T13:31:44.141Z,15.53
2023-03-19T13:34:22.065Z,15.40
2023-03-19T13:36:55.256Z,15.39
2023-03-19T13:39:28.143Z,15.46
2023-03-19T13:42:07.854Z,15.51
2023-03-19T13:44:41.398Z,15.47
2023-03-19T13:47:38.381Z,15.54
2023-03-19T13:50:06.103Z,15.40
2023-03-19T13:52:32.780Z,15.41
2023-03-19T13:55:31.200Z,15.46
2023-03-19T13:58:17.937Z,15.46
2023-03-19T14:00:45.155Z,15.57
2023-03-19T14:03:29.980Z,15.56
2023-03-19T14:05:59.263Z,15.51
2023-03-19T14:08:29.960Z,15.35
2023-03-19T14:11:03.210Z,15.56
2023-03-19T14:13:45.063Z,15.46
2023-03-19T14:16:27.396Z,15.54
2023-03-19T14:19:00.457Z,15.46
2023-03-19T14:21:46.511Z,15.48
2023-03-19T14:27:32.881Z,15.41
2023-03-19T14:30:09.411Z,15.30
2023-03-19T14:32:41.067Z,15.23
2023-03-19T14:35:14.935Z,15.30
2023-03-19T14:37:50.912Z,15.18
2023-03-19T14:40:27.033Z,15.15
2023-03-19T14:43:02.959Z,15.10
2023-03-19T14:45:49.677Z,15.09
2023-03-19T14:48:31.400Z,14.93
2023-03-19T14:51:14.391Z,14.87
2023-03-19T14:53:46.404Z,14.80
2023-03-19T14:56:16.033Z,14.80
2023-03-19T14:58:52.960Z,14.76
2023-03-19T15:01:21.561Z,14.70
2023-03-19T15:03:55.500Z,14.65
2023-03-19T15:06:22.679Z,14.61
2023-03-19T15:08:50.182Z,14.49
2023-03-19T15:11:34.635Z,14.50
2023-03-19T15:14:23.467Z,14.30
2023-03-19T15:17:13.694Z,14.31
2023-03-19T15:19:40.996Z,14.32
